Time;durP1;ratioP1;P1;durP2;ratioP2;P2;SDS_P1;SDS_P2;PMS_P1;PMS_P2;Temp;Humidity;BMP_temperature;BMP_pressure;BME280_temperature;BME280_humidity;BME280_pressure;Samples;Min_cycle;Max_cycle;Signal;HPM_P1;HPM_P2
2021/12/24 00:01:55;;;;;;;40.67;17.77;;;;;;;8.27;100.00;100483.28;5032686;28;20029;-74
2021/12/24 00:04:22;;;;;;;36.45;17.20;;;;;;;8.24;100.00;100487.84;5032650;28;20473;-74
2021/12/24 00:06:48;;;;;;;36.42;17.02;;;;;;;8.29;100.00;100486.72;5032833;28;20116;-74
2021/12/24 00:09:21;;;;;;;34.92;16.27;;;;;;;8.31;100.00;100482.25;5033233;28;20028;-74
2021/12/24 00:11:47;;;;;;;38.83;17.98;;;;;;;8.36;100.00;100482.06;5032565;28;20504;-74
2021/12/24 00:14:13;;;;;;;37.13;18.02;;;;;;;8.42;100.00;100478.31;5033097;28;20021;-74
2021/12/24 00:16:46;;;;;;;32.22;16.90;;;;;;;8.40;100.00;100490.69;5034596;28;20033;-74
2021/12/24 00:19:21;;;;;;;39.97;17.77;;;;;;;8.42;100.00;100487.06;5036949;28;20033;-72
2021/12/24 00:35:33;;;;;;;33.22;17.05;;;;;;;8.64;100.00;100460.66;5037110;28;20079;-74
2021/12/24 00:38:03;;;;;;;36.15;16.15;;;;;;;8.72;100.00;100478.84;5036262;28;20056;-73
2021/12/24 00:40:34;;;;;;;39.17;16.90;;;;;;;8.73;100.00;100467.34;5036660;28;20040;-73
2021/12/24 00:42:59;;;;;;;38.35;16.42;;;;;;;8.75;100.00;100481.34;5036324;28;20036;-74
2021/12/24 00:45:28;;;;;;;37.15;14.82;;;;;;;8.81;100.00;100475.78;5036799;28;20025;-74
2021/12/24 00:47:56;;;;;;;37.10;15.30;;;;;;;8.88;100.00;100489.59;5036359;28;20034;-74
2021/12/24 00:50:25;;;;;;;32.72;13.73;;;;;;;8.89;100.00;100488.66;5036254;28;20094;-74
2021/12/24 00:55:02;;;;;;;30.67;14.00;;;;;;;8.97;100.00;100493.59;5035855;28;20021;-74
2021/12/24 00:55:49;;;;;;;34.58;13.90;;;;;;;8.95;100.00;100484.88;5036496;28;20098;-73
2021/12/24 00:58:15;;;;;;;33.17;12.80;;;;;;;9.02;100.00;100462.56;5036027;28;20096;-74
2021/12/24 01:00:41;;;;;;;29.02;12.95;;;;;;;9.01;100.00;100498.69;5036326;28;20033;-75
2021/12/24 01:03:09;;;;;;;31.52;13.20;;;;;;;9.02;100.00;100486.34;5035844;28;20032;-76
2021/12/24 01:05:36;;;;;;;28.48;13.15;;;;;;;9.05;100.00;100478.28;5036204;28;20059;-74
2021/12/24 01:08:01;;;;;;;32.90;12.52;;;;;;;9.10;100.00;100480.72;5036162;28;20022;-73
2021/12/24 01:10:31;;;;;;;31.15;12.68;;;;;;;9.10;100.00;100489.50;5035909;28;20512;-74
2021/12/24 01:12:57;;;;;;;27.90;12.60;;;;;;;9.11;100.00;100487.72;5036075;28;20033;-74
2021/12/24 01:15:23;;;;;;;30.70;12.23;;;;;;;9.14;100.00;100495.50;5035515;28;20025;-71
2021/12/24 01:20:47;;;;;;;26.60;11.40;;;;;;;9.18;100.00;100478.56;5035940;28;20044;-73
2021/12/24 01:26:04;;;;;;;26.08;11.95;;;;;;;9.17;100.00;100488.31;5035291;28;20393;-75
2021/12/24 01:39:53;;;;;;;24.23;10.57;;;;;;;9.08;100.00;100469.34;5035653;28;20041;-76
2021/12/24 01:45:18;;;;;;;30.20;10.10;;;;;;;8.99;100.00;100489.97;5035200;28;20421;-74
2021/12/24 01:47:43;;;;;;;24.17;9.38;;;;;;;8.99;100.00;100497.91;5035399;28;20037;-74
2021/12/24 01:50:09;;;;;;;26.02;9.52;;;;;;;8.99;100.00;100492.63;5035670;28;20466;-75
2021/12/24 01:52:34;;;;;;;24.42;10.15;;;;;;;9.00;100.00;100493.47;5035170;28;20040;-74
2021/12/24 01:55:00;;;;;;;23.98;9.35;;;;;;;9.00;100.00;100486.41;5035296;28;20021;-74
2021/12/24 01:57:25;;;;;;;29.45;9.77;;;;;;;8.99;100.00;100470.63;5034607;28;20486;-74
2021/12/24 01:59:51;;;;;;;28.42;9.85;;;;;;;8.99;100.00;100484.69;5035457;28;20130;-75
2021/12/24 02:02:17;;;;;;;22.90;8.75;;;;;;;9.01;100.00;100498.69;5034690;28;20036;-74
2021/12/24 02:04:42;;;;;;;21.70;8.20;;;;;;;9.03;100.00;100480.13;5035069;28;20040;-74
2021/12/24 02:07:07;;;;;;;26.33;8.52;;;;;;;9.01;100.00;100496.06;5034763;28;20108;-74
2021/12/24 02:09:34;;;;;;;26.40;8.73;;;;;;;8.99;100.00;100491.75;5034914;28;20025;-75
2021/12/24 02:12:00;;;;;;;22.38;7.88;;;;;;;8.96;100.00;100508.56;5034532;28;20026;-74
2021/12/24 02:14:33;;;;;;;17.98;7.63;;;;;;;8.91;100.00;100497.34;5034808;28;20061;-75
2021/12/24 02:17:21;;;;;;;22.38;8.57;;;;;;;8.89;100.00;100493.94;5034937;28;20021;-75
2021/12/24 02:30:41;;;;;;;24.08;9.35;;;;;;;9.01;100.00;100498.69;5034956;28;20044;-74
2021/12/24 02:33:07;;;;;;;20.40;9.50;;;;;;;9.01;100.00;100497.81;5033800;28;20029;-73
2021/12/24 02:35:34;;;;;;;21.65;8.77;;;;;;;9.00;100.00;100498.75;5034709;28;20037;-73
2021/12/24 02:38:00;;;;;;;27.38;9.10;;;;;;;8.96;100.00;100500.66;5034409;28;20040;-75
2021/12/24 02:40:27;;;;;;;24.00;8.77;;;;;;;8.99;100.00;100497.91;5033424;28;20037;-75
2021/12/24 02:42:55;;;;;;;20.60;8.02;;;;;;;8.97;100.00;100475.97;5033629;28;20533;-75
2021/12/24 02:45:22;;;;;;;24.48;8.25;;;;;;;8.93;100.00;100492.88;5034575;28;20033;-75
2021/12/24 02:55:58;;;;;;;24.05;7.85;;;;;;;8.90;100.00;100490.38;5034218;28;20107;-74
2021/12/24 02:58:24;;;;;;;19.55;7.13;;;;;;;8.90;100.00;100493.03;5033929;28;20454;-75
2021/12/24 03:00:49;;;;;;;17.83;8.20;;;;;;;8.88;100.00;100479.03;5034188;28;20029;-74
2021/12/24 03:03:15;;;;;;;16.63;8.57;;;;;;;8.90;100.00;100492.16;5033709;28;20021;-74
2021/12/24 03:05:40;;;;;;;16.85;8.38;;;;;;;8.93;100.00;100489.41;5033631;28;20056;-75
2021/12/24 03:08:06;;;;;;;20.38;8.18;;;;;;;8.94;100.00;100483.16;5033909;28;20036;-75
2021/12/24 03:10:31;;;;;;;19.65;7.75;;;;;;;8.96;100.00;100483.97;5033876;28;20032;-75
2021/12/24 03:12:56;;;;;;;22.38;7.97;;;;;;;8.93;100.00;100490.25;5033586;28;20103;-74
2021/12/24 03:15:24;;;;;;;22.70;7.47;;;;;;;8.91;100.00;100486.78;5033581;28;20029;-74
2021/12/24 03:17:54;;;;;;;21.10;8.70;;;;;;;8.87;100.00;100490.50;5033968;28;20032;-73
2021/12/24 03:20:21;;;;;;;26.92;8.48;;;;;;;8.89;100.00;100487.78;5033861;28;20037;-72
2021/12/24 03:25:31;;;;;;;25.60;7.65;;;;;;;8.84;100.00;100475.66;5032787;28;20096;-75
2021/12/24 03:27:57;;;;;;;21.85;8.00;;;;;;;8.82;100.00;100481.91;5033297;28;20033;-74
2021/12/24 03:30:23;;;;;;;22.58;7.65;;;;;;;8.81;100.00;100499.56;5033543;28;20030;-74
2021/12/24 03:32:48;;;;;;;19.48;7.25;;;;;;;8.73;100.00;100493.72;5033617;28;20104;-75
2021/12/24 03:35:14;;;;;;;20.08;7.40;;;;;;;8.73;100.00;100483.16;5033163;28;20038;-73
2021/12/24 03:37:39;;;;;;;25.67;7.72;;;;;;;8.77;100.00;100479.50;5033074;28;20030;-75
2021/12/24 03:40:05;;;;;;;22.50;8.30;;;;;;;8.76;100.00;100492.75;5033567;28;20113;-75
2021/12/24 03:42:31;;;;;;;23.02;7.13;;;;;;;8.78;100.00;100473.28;5032969;28;20037;-74
2021/12/24 03:45:09;;;;;;;23.50;8.55;;;;;;;8.80;100.00;100486.44;5033347;28;20029;-74
2021/12/24 03:47:39;;;;;;;22.50;7.72;;;;;;;8.78;100.00;100480.34;5033072;28;20029;-74
2021/12/24 03:50:10;;;;;;;20.48;8.05;;;;;;;8.76;100.00;100495.38;5032506;28;20472;-74
2021/12/24 03:53:01;;;;;;;28.98;7.80;;;;;;;8.77;100.00;100495.34;5032825;28;20377;-74
2021/12/24 03:55:23;;;;;;;24.20;6.88;;;;;;;8.73;100.00;100474.41;5032768;28;20032;-75
2021/12/24 03:57:49;;;;;;;22.77;7.18;;;;;;;8.75;100.00;100480.50;5032803;28;20059;-74
2021/12/24 04:00:28;;;;;;;20.38;6.65;;;;;;;8.75;100.00;100496.34;5033354;28;20462;-75
2021/12/24 04:02:54;;;;;;;27.00;7.85;;;;;;;8.69;100.00;100477.16;5033168;28;20033;-74
2021/12/24 04:05:19;;;;;;;19.92;5.88;;;;;;;8.74;100.00;100487.53;5032782;28;20040;-75
2021/12/24 04:07:44;;;;;;;25.80;6.70;;;;;;;8.73;100.00;100480.53;5032098;28;20025;-73
2021/12/24 04:10:36;;;;;;;22.77;6.78;;;;;;;8.71;100.00;100482.41;5032654;28;20071;-74
2021/12/24 04:13:01;;;;;;;26.30;6.32;;;;;;;8.67;100.00;100488.72;5032165;28;20030;-74
2021/12/24 04:15:26;;;;;;;22.48;6.22;;;;;;;8.65;100.00;100495.84;5032993;28;20440;-74
2021/12/24 04:17:52;;;;;;;19.15;6.10;;;;;;;8.65;100.00;100493.22;5032488;28;20116;-72
2021/12/24 04:25:45;;;;;;;30.33;6.43;;;;;;;8.59;100.00;100496.09;5032740;28;20084;-73
2021/12/24 04:28:10;;;;;;;19.83;5.97;;;;;;;8.58;100.00;100483.81;5032572;28;20061;-74
2021/12/24 04:30:42;;;;;;;26.73;6.53;;;;;;;8.59;100.00;100493.47;5032943;28;20037;-73
2021/12/24 04:33:23;;;;;;;16.70;5.50;;;;;;;8.59;100.00;100491.69;5032735;28;20037;-75
2021/12/24 04:52:12;;;;;;;23.88;5.78;;;;;;;8.53;100.00;100491.97;5032562;28;20044;-74
2021/12/24 05:05:52;;;;;;;20.05;4.97;;;;;;;8.43;100.00;100480.88;4994723;28;20629;-73
2021/12/24 05:08:27;;;;;;;18.88;5.28;;;;;;;8.44;100.00;100492.28;4994517;28;20156;-72
2021/12/24 05:10:53;;;;;;;26.45;5.82;;;;;;;8.46;100.00;100483.41;4989009;28;20265;-73
2021/12/24 05:13:21;;;;;;;28.35;5.90;;;;;;;8.44;100.00;100484.38;4994671;28;20117;-70
2021/12/24 05:15:50;;;;;;;25.02;6.32;;;;;;;8.44;100.00;100492.28;4994330;28;20072;-74
2021/12/24 05:19:01;;;;;;;19.92;4.95;;;;;;;8.38;100.00;100501.31;4994418;28;20494;-74
2021/12/24 05:21:32;;;;;;;28.50;5.45;;;;;;;8.34;100.00;100492.69;4993515;28;20502;-75
2021/12/24 05:23:58;;;;;;;;;;;;;;;8.35;100.00;100485.59;4994754;28;20113;-72
2021/12/24 05:26:23;;;;;;;18.33;5.22;;;;;;;8.37;100.00;100491.69;4994433;28;20008;-74
2021/12/24 05:28:49;;;;;;;23.98;5.25;;;;;;;8.33;100.00;100490.94;4994319;28;20043;-72
2021/12/24 05:31:14;;;;;;;19.75;5.97;;;;;;;8.31;100.00;100474.34;4993340;28;20477;-74
2021/12/24 05:33:40;;;;;;;27.60;5.28;;;;;;;8.29;100.00;100486.72;4994262;28;20181;-72
2021/12/24 05:36:05;;;;;;;21.05;5.63;;;;;;;8.28;100.00;100497.34;4994074;28;20454;-74
2021/12/24 05:38:30;;;;;;;24.52;5.80;;;;;;;8.22;100.00;100495.81;4994183;28;20466;-73
2021/12/24 05:40:56;;;;;;;23.42;5.10;;;;;;;8.22;100.00;100489.69;4993537;28;20053;-73
2021/12/24 05:43:21;;;;;;;30.85;6.75;;;;;;;8.20;100.00;100487.97;5029065;28;20045;-72
2021/12/24 05:45:47;;;;;;;24.80;5.63;;;;;;;8.21;100.00;100496.75;5035189;28;20045;-74
2021/12/24 05:48:12;;;;;;;21.48;5.70;;;;;;;8.16;100.00;100504.00;5035738;28;20469;-74
2021/12/24 05:50:37;;;;;;;24.85;5.63;;;;;;;8.21;100.00;100491.47;5035024;28;20712;-74
2021/12/24 05:53:03;;;;;;;25.40;5.88;;;;;;;8.18;100.00;100496.84;5035318;28;20108;-74
2021/12/24 05:55:28;;;;;;;21.98;4.90;;;;;;;8.16;100.00;100507.47;5035378;28;20036;-73
2021/12/24 05:57:53;;;;;;;19.02;5.43;;;;;;;8.16;100.00;100498.72;5035134;28;20064;-73
2021/12/24 06:00:19;;;;;;;18.98;4.88;;;;;;;8.15;100.00;100510.19;5035117;28;20037;-71
2021/12/24 06:02:44;;;;;;;31.00;5.75;;;;;;;8.13;100.00;100506.72;5034325;28;20083;-74
2021/12/24 06:05:10;;;;;;;27.60;5.07;;;;;;;8.13;100.00;100502.34;5035035;28;20034;-72
2021/12/24 06:07:35;;;;;;;21.35;5.20;;;;;;;8.18;100.00;100502.13;5034976;28;20025;-72
2021/12/24 06:10:01;;;;;;;30.60;5.90;;;;;;;8.15;100.00;100504.91;5035155;28;20025;-74
2021/12/24 06:12:27;;;;;;;20.45;5.43;;;;;;;8.12;100.00;100510.28;5024179;28;20371;-78
2021/12/24 06:14:55;;;;;;;26.50;5.15;;;;;;;8.08;100.00;100520.13;5029732;28;20037;-74
2021/12/24 06:17:22;;;;;;;27.00;6.03;;;;;;;8.09;100.00;100506.00;5034660;28;20048;-74
2021/12/24 06:19:49;;;;;;;26.95;4.80;;;;;;;8.10;100.00;100506.88;5034823;28;20029;-73
2021/12/24 06:22:14;;;;;;;26.63;5.78;;;;;;;8.09;100.00;100508.63;5033577;28;20083;-74
2021/12/24 06:24:40;;;;;;;22.95;4.90;;;;;;;8.15;100.00;100497.00;5030451;28;20030;-74
2021/12/24 06:27:05;;;;;;;22.85;5.88;;;;;;;8.14;100.00;100508.47;5034402;28;20065;-75
2021/12/24 06:29:31;;;;;;;18.77;5.00;;;;;;;8.14;100.00;100504.03;5034152;28;20021;-75
2021/12/24 06:31:56;;;;;;;23.75;5.15;;;;;;;8.11;100.00;100508.59;5034583;28;20378;-74
2021/12/24 06:34:22;;;;;;;16.92;5.35;;;;;;;8.08;100.00;100509.56;5034116;28;20095;-74
2021/12/24 06:36:49;;;;;;;25.35;5.47;;;;;;;8.03;100.00;100517.66;5034460;28;20407;-74
2021/12/24 06:39:15;;;;;;;23.27;5.78;;;;;;;8.03;100.00;100500.97;5033276;28;20053;-75
2021/12/24 06:41:41;;;;;;;23.10;5.50;;;;;;;8.02;100.00;100502.75;5030947;28;20046;-73
2021/12/24 06:44:10;;;;;;;17.80;4.47;;;;;;;7.99;100.00;100504.63;5018537;28;20064;-75
2021/12/24 06:46:36;;;;;;;21.52;4.90;;;;;;;7.95;100.00;100508.31;5033770;28;20490;-74
2021/12/24 06:49:02;;;;;;;19.60;4.32;;;;;;;7.97;100.00;100504.72;5033798;28;20060;-71
2021/12/24 06:51:28;;;;;;;23.52;4.95;;;;;;;7.98;100.00;100493.25;5033823;28;20032;-75
2021/12/24 06:53:54;;;;;;;23.00;5.32;;;;;;;7.99;100.00;100497.59;5033215;28;20025;-75
2021/12/24 06:56:20;;;;;;;24.08;5.07;;;;;;;8.01;100.00;100500.19;5033990;28;20064;-75
2021/12/24 06:58:46;;;;;;;21.55;4.55;;;;;;;8.02;100.00;100500.09;5033464;28;20060;-72
2021/12/24 07:01:11;;;;;;;23.05;5.05;;;;;;;8.03;100.00;100495.69;5033811;28;20057;-72
2021/12/24 07:03:41;;;;;;;23.60;5.65;;;;;;;8.04;100.00;100503.56;5032091;28;20029;-75
2021/12/24 07:06:07;;;;;;;26.95;5.60;;;;;;;7.98;100.00;100500.28;5033044;28;20482;-71
2021/12/24 07:08:32;;;;;;;18.45;4.50;;;;;;;7.97;100.00;100509.13;5033518;28;20032;-74
2021/12/24 07:10:58;;;;;;;20.60;4.60;;;;;;;7.95;100.00;100500.41;5033539;28;20430;-73
2021/12/24 07:13:25;;;;;;;25.42;4.55;;;;;;;7.94;100.00;100501.31;5033266;28;20605;-72
2021/12/24 07:15:50;;;;;;;21.27;4.38;;;;;;;7.94;100.00;100501.31;5032899;28;20034;-75
2021/12/24 07:18:15;;;;;;;18.48;4.65;;;;;;;7.91;100.00;100485.63;5033019;28;20485;-72
2021/12/24 07:20:41;;;;;;;23.85;5.20;;;;;;;7.89;100.00;100496.25;5033290;28;20478;-75
2021/12/24 07:23:06;;;;;;;21.30;4.43;;;;;;;7.84;100.00;100503.47;5033024;28;20034;-74
2021/12/24 07:25:32;;;;;;;17.77;3.80;;;;;;;7.84;100.00;100500.84;5032307;28;20037;-73
2021/12/24 07:27:58;;;;;;;22.10;4.25;;;;;;;7.85;100.00;100490.25;5032321;28;20032;-73
2021/12/24 07:30:24;;;;;;;17.88;3.88;;;;;;;7.90;100.00;100500.59;5033315;28;20068;-72
2021/12/24 07:32:49;;;;;;;22.23;4.00;;;;;;;7.90;100.00;100500.59;5033270;28;20037;-75
2021/12/24 07:35:16;;;;;;;17.80;3.50;;;;;;;7.95;100.00;100503.91;5032956;28;20026;-72
2021/12/24 07:37:42;;;;;;;18.15;3.85;;;;;;;7.96;100.00;100510.91;5032646;28;20036;-74
2021/12/24 07:40:10;;;;;;;17.35;3.60;;;;;;;7.87;100.00;100506.84;5033166;28;20029;-74
2021/12/24 07:42:36;;;;;;;18.55;3.88;;;;;;;7.88;100.00;100503.28;5032873;28;20053;-73
2021/12/24 07:45:03;;;;;;;21.20;3.90;;;;;;;7.90;100.00;100500.59;5031991;28;20389;-72
2021/12/24 07:47:37;;;;;;;19.55;3.65;;;;;;;7.88;100.00;100500.66;5032993;28;20025;-75
2021/12/24 07:50:17;;;;;;;18.33;4.20;;;;;;;7.93;100.00;100481.16;5032704;28;20026;-73
2021/12/24 07:52:43;;;;;;;21.25;3.15;;;;;;;7.90;100.00;100491.81;5025297;28;20083;-72
2021/12/24 07:55:10;;;;;;;14.48;3.00;;;;;;;7.90;100.00;100491.81;5023189;28;20072;-74
2021/12/24 07:57:36;;;;;;;21.17;4.35;;;;;;;7.90;100.00;100489.19;5023438;28;20087;-74
2021/12/24 08:00:05;;;;;;;24.92;3.88;;;;;;;7.91;100.00;100489.13;5030935;28;20044;-74
2021/12/24 08:02:31;;;;;;;17.38;3.58;;;;;;;7.94;100.00;100490.78;5031436;28;20029;-74
2021/12/24 08:04:57;;;;;;;20.85;4.20;;;;;;;7.92;100.00;100490.84;5032279;28;20036;-75
2021/12/24 08:07:22;;;;;;;13.55;3.33;;;;;;;7.93;100.00;100494.34;5031698;28;20533;-72
2021/12/24 08:09:51;;;;;;;18.73;3.20;;;;;;;7.91;100.00;100486.47;5031617;28;20036;-73
2021/12/24 08:12:17;;;;;;;17.85;3.35;;;;;;;7.91;100.00;100499.66;5032425;28;20644;-74
2021/12/24 08:14:44;;;;;;;20.55;3.28;;;;;;;7.93;100.00;100505.75;5032397;28;20038;-71
2021/12/24 08:17:10;;;;;;;18.70;3.22;;;;;;;7.95;100.00;100519.72;5031592;28;20028;-72
2021/12/24 08:19:36;;;;;;;18.17;3.40;;;;;;;7.99;100.00;100504.63;5031570;28;20052;-71
2021/12/24 08:22:01;;;;;;;19.33;3.75;;;;;;;7.98;100.00;100510.81;5032240;28;20025;-72
2021/12/24 08:24:27;;;;;;;12.57;3.15;;;;;;;8.02;100.00;100508.03;5031472;28;20034;-73
2021/12/24 08:26:52;;;;;;;18.75;2.90;;;;;;;8.05;100.00;100509.69;5032088;28;20099;-69
2021/12/24 08:29:18;;;;;;;19.38;3.58;;;;;;;8.11;100.00;100493.63;5025547;28;20390;-74
2021/12/24 08:31:44;;;;;;;20.25;3.17;;;;;;;8.14;100.00;100505.81;5027080;28;20024;-71
2021/12/24 08:34:10;;;;;;;19.10;3.47;;;;;;;8.22;100.00;100503.72;5031592;28;20213;-72
2021/12/24 08:36:36;;;;;;;27.27;3.47;;;;;;;8.28;100.00;100513.19;5028012;28;20037;-73
2021/12/24 08:39:03;;;;;;;22.77;3.92;;;;;;;8.28;100.00;100514.03;5022413;28;20029;-73
2021/12/24 08:41:28;;;;;;;20.60;3.85;;;;;;;8.27;100.00;100506.19;5032504;28;20131;-73
2021/12/24 08:43:54;;;;;;;14.75;3.30;;;;;;;8.30;100.00;100508.69;5035360;28;20427;-70
2021/12/24 08:46:19;;;;;;;14.80;2.70;;;;;;;8.30;100.00;100503.41;5035839;28;20025;-72
2021/12/24 08:48:45;;;;;;;26.77;4.80;;;;;;;8.31;100.00;100491.94;5035792;28;20378;-70
2021/12/24 08:51:11;;;;;;;18.98;3.72;;;;;;;8.34;100.00;100507.66;5035517;28;20132;-72
2021/12/24 08:53:37;;;;;;;21.05;3.22;;;;;;;8.41;100.00;100509.09;5035856;28;20036;-73
2021/12/24 08:56:03;;;;;;;19.73;3.80;;;;;;;8.46;100.00;100501.03;5027716;28;20037;-73
2021/12/24 08:58:28;;;;;;;16.30;3.55;;;;;;;8.46;100.00;100511.59;5032401;28;20029;-74
2021/12/24 09:00:53;;;;;;;20.80;3.20;;;;;;;8.46;100.00;100508.97;5035691;28;20100;-70
2021/12/24 09:03:19;;;;;;;23.63;3.90;;;;;;;8.48;100.00;100512.41;5035514;28;20031;-72
2021/12/24 09:05:45;;;;;;;21.08;3.30;;;;;;;8.47;100.00;100514.16;5035110;28;20025;-72
2021/12/24 09:08:11;;;;;;;17.33;3.20;;;;;;;8.50;100.00;100516.69;5034984;28;20037;-73
2021/12/24 09:10:36;;;;;;;16.98;3.03;;;;;;;8.55;100.00;100502.44;5034655;28;20019;-72
2021/12/24 09:13:02;;;;;;;25.02;3.45;;;;;;;8.57;100.00;100514.66;5035585;28;20466;-70
2021/12/24 09:15:30;;;;;;;19.73;3.90;;;;;;;8.61;100.00;100507.47;5035387;28;20044;-73
2021/12/24 09:17:58;;;;;;;18.10;3.33;;;;;;;8.63;100.00;100516.16;5034831;28;20029;-72
2021/12/24 09:20:29;;;;;;;14.75;3.70;;;;;;;8.68;100.00;100511.56;5034847;28;20033;-70
2021/12/24 09:22:55;;;;;;;17.83;3.70;;;;;;;8.68;100.00;100508.91;5034344;28;20052;-70
2021/12/24 09:25:23;;;;;;;20.40;4.28;;;;;;;8.72;100.00;100492.03;5035279;28;20068;-73
2021/12/24 09:27:49;;;;;;;16.50;3.33;;;;;;;8.76;100.00;100487.47;5034993;28;20366;-74
2021/12/24 09:30:14;;;;;;;20.02;4.03;;;;;;;8.69;100.00;100498.28;5034794;28;20033;-74
2021/12/24 09:32:40;;;;;;;21.17;4.60;;;;;;;8.68;100.00;100507.16;5034870;28;20038;-73
2021/12/24 09:35:07;;;;;;;25.63;4.75;;;;;;;8.67;100.00;100509.81;5033962;28;20461;-73
2021/12/24 09:37:32;;;;;;;23.75;5.20;;;;;;;8.67;100.00;100507.19;5027778;28;20021;-71
2021/12/24 09:39:58;;;;;;;21.90;4.07;;;;;;;8.64;100.00;100515.25;5034183;28;20367;-74
2021/12/24 09:42:24;;;;;;;17.45;4.00;;;;;;;8.61;100.00;100512.75;5032434;28;20041;-69
2021/12/24 09:44:50;;;;;;;21.45;4.93;;;;;;;8.58;100.00;100497.91;5034897;28;20033;-73
2021/12/24 09:47:15;;;;;;;22.65;4.30;;;;;;;8.53;100.00;100511.28;5034469;28;20382;-71
2021/12/24 09:49:40;;;;;;;17.85;4.40;;;;;;;8.55;100.00;100507.72;5033432;28;20129;-72
2021/12/24 09:52:06;;;;;;;17.00;4.63;;;;;;;8.51;100.00;100502.56;5033962;28;20466;-73
2021/12/24 09:54:31;;;;;;;23.50;4.70;;;;;;;8.52;100.00;100503.44;5034288;28;20045;-72
2021/12/24 09:56:58;;;;;;;19.20;4.63;;;;;;;8.56;100.00;100497.09;5034512;28;20026;-72
2021/12/24 09:59:24;;;;;;;19.95;4.45;;;;;;;8.58;100.00;100503.19;5034462;28;20026;-71
2021/12/24 10:01:54;;;;;;;20.05;4.57;;;;;;;8.60;100.00;100498.69;5033412;28;20465;-72
2021/12/24 10:04:22;;;;;;;17.38;3.67;;;;;;;8.66;100.00;100510.78;5029220;28;20060;-72
2021/12/24 10:07:07;;;;;;;17.48;4.47;;;;;;;8.65;100.00;100506.41;5033611;28;20115;-71
2021/12/24 10:09:34;;;;;;;20.80;4.65;;;;;;;8.68;100.00;100501.88;5033766;28;20029;-72
2021/12/24 10:12:03;;;;;;;16.05;4.07;;;;;;;8.70;100.00;100499.16;5033876;28;20041;-73
2021/12/24 10:14:36;;;;;;;16.67;4.93;;;;;;;8.69;100.00;100503.56;5028378;28;20025;-69
2021/12/24 10:17:03;;;;;;;16.63;4.20;;;;;;;8.69;100.00;100516.75;5029936;28;20065;-71
2021/12/24 10:19:28;;;;;;;20.70;5.07;;;;;;;8.71;100.00;100508.78;5032289;28;20033;-71
2021/12/24 10:22:03;;;;;;;21.75;4.68;;;;;;;8.74;100.00;100497.25;5034477;28;20033;-71
2021/12/24 10:24:29;;;;;;;23.50;6.75;;;;;;;8.73;100.00;100493.72;5015711;28;20033;-73
2021/12/24 10:26:57;;;;;;;18.58;4.05;;;;;;;8.74;100.00;100507.81;5014610;28;20083;-72
2021/12/24 10:29:29;;;;;;;17.38;4.88;;;;;;;8.76;100.00;100511.22;5014623;28;20037;-69
2021/12/24 10:32:08;;;;;;;18.08;3.90;;;;;;;8.69;100.00;100505.34;5014189;28;20458;-71
2021/12/24 10:34:35;;;;;;;19.92;4.70;;;;;;;8.68;100.00;100515.06;5014975;28;20368;-73
2021/12/24 10:37:13;;;;;;;19.65;4.47;;;;;;;8.73;100.00;100509.56;5033893;28;20465;-73
2021/12/24 10:39:40;;;;;;;14.35;4.50;;;;;;;8.77;100.00;100505.03;5033955;28;20037;-71
2021/12/24 10:42:37;;;;;;;19.35;5.05;;;;;;;8.73;100.00;100514.00;5032981;28;20033;-73
2021/12/24 10:45:06;;;;;;;18.05;4.60;;;;;;;8.68;100.00;100488.66;5029771;28;20049;-71
2021/12/24 10:47:39;;;;;;;19.05;4.43;;;;;;;8.71;100.00;100492.09;5040186;28;20473;-71
2021/12/24 10:55:43;;;;;;;19.75;4.25;;;;;;;8.84;100.00;100491.50;5032944;28;20056;-71
2021/12/24 10:58:17;;;;;;;16.63;3.80;;;;;;;8.82;100.00;100498.63;5032938;28;20103;-72
2021/12/24 11:00:48;;;;;;;21.42;3.90;;;;;;;8.82;100.00;100496.00;5032980;28;20025;-72
2021/12/24 11:03:21;;;;;;;18.92;3.83;;;;;;;8.79;100.00;100492.63;5032175;28;20025;-73
2021/12/24 11:05:55;;;;;;;21.83;5.75;;;;;;;8.84;100.00;100498.56;5029090;28;20109;-69
2021/12/24 11:08:24;;;;;;;18.98;3.80;;;;;;;8.81;100.00;100498.69;5028037;28;20087;-73
2021/12/24 11:10:55;;;;;;;16.98;4.55;;;;;;;8.88;100.00;100496.66;5033685;28;20083;-73
2021/12/24 11:13:29;;;;;;;22.38;4.57;;;;;;;8.95;100.00;100487.53;5028837;28;20047;-72
2021/12/24 11:15:55;;;;;;;15.68;3.60;;;;;;;8.94;100.00;100501.66;5026404;28;20113;-72
2021/12/24 11:18:44;;;;;;;20.90;5.03;;;;;;;8.90;100.00;100500.06;5027969;28;20488;-69
2021/12/24 11:21:12;;;;;;;15.30;4.00;;;;;;;8.87;100.00;100505.50;5031323;28;20029;-74
2021/12/24 11:23:40;;;;;;;22.65;4.30;;;;;;;8.80;100.00;100497.84;5031550;28;20052;-74
2021/12/24 11:26:08;;;;;;;19.20;4.03;;;;;;;8.81;100.00;100490.75;5031981;28;20041;-73
2021/12/24 11:28:34;;;;;;;18.80;4.30;;;;;;;8.84;100.00;100498.56;5032338;28;20021;-73
2021/12/24 11:31:04;;;;;;;17.73;4.68;;;;;;;8.78;100.00;100501.47;5026638;28;20042;-72
2021/12/24 11:33:32;;;;;;;14.57;4.03;;;;;;;8.79;100.00;100490.84;5031667;28;20035;-71
2021/12/24 11:35:59;;;;;;;24.58;4.15;;;;;;;8.82;100.00;100481.91;5032745;28;20112;-73
2021/12/24 11:38:32;;;;;;;18.02;3.70;;;;;;;8.82;100.00;100492.47;5032753;28;20473;-70
2021/12/24 11:40:59;;;;;;;16.75;4.55;;;;;;;8.78;100.00;100488.25;5040865;28;20120;-73
2021/12/24 11:43:30;;;;;;;19.80;3.83;;;;;;;8.69;100.00;100500.06;5031300;28;20036;-72
2021/12/24 11:45:58;;;;;;;16.45;4.00;;;;;;;8.71;100.00;100494.72;5032511;28;20473;-72
2021/12/24 11:48:26;;;;;;;21.70;4.50;;;;;;;8.65;100.00;100501.13;5032257;28;20021;-70
2021/12/24 11:50:52;;;;;;;19.48;3.70;;;;;;;8.71;100.00;100492.09;5032994;28;20025;-74
2021/12/24 11:53:17;;;;;;;23.10;4.47;;;;;;;8.72;100.00;100476.19;5035618;28;20036;-72
2021/12/24 11:55:48;;;;;;;18.67;4.53;;;;;;;8.70;100.00;100493.88;5032507;28;20025;-72
2021/12/24 11:58:23;;;;;;;19.02;4.13;;;;;;;8.76;100.00;100484.81;5032700;28;20021;-73
2021/12/24 12:00:53;;;;;;;16.92;3.95;;;;;;;8.74;100.00;100484.91;5032121;28;20050;-73
2021/12/24 12:03:38;;;;;;;22.35;3.75;;;;;;;8.68;100.00;100482.50;5041031;28;20021;-73
2021/12/24 12:06:25;;;;;;;16.60;4.65;;;;;;;8.66;100.00;100489.66;5032321;28;20029;-74
2021/12/24 12:08:53;;;;;;;19.50;3.65;;;;;;;8.63;100.00;100479.22;5007525;28;20163;-73
2021/12/24 12:11:24;;;;;;;15.45;3.83;;;;;;;8.73;100.00;100479.69;5040314;28;20089;-74
2021/12/24 12:14:01;;;;;;;23.85;4.32;;;;;;;8.71;100.00;100490.31;5044745;28;20034;-75
2021/12/24 12:16:40;;;;;;;19.48;3.83;;;;;;;8.66;100.00;100492.28;5031388;28;20465;-74
2021/12/24 12:19:15;;;;;;;14.43;3.70;;;;;;;8.65;100.00;100483.50;5024313;28;20037;-72
2021/12/24 12:21:43;;;;;;;22.17;4.35;;;;;;;8.66;100.00;100490.50;5030603;28;20033;-74
2021/12/24 12:26:44;;;;;;;22.20;4.05;;;;;;;8.69;100.00;100490.34;5032311;28;20037;-73
2021/12/24 12:29:42;;;;;;;18.60;4.07;;;;;;;8.70;100.00;100485.97;5032444;28;20133;-75
2021/12/24 12:32:13;;;;;;;25.50;4.45;;;;;;;8.69;100.00;100490.34;5027671;28;20139;-72
2021/12/24 12:34:38;;;;;;;21.63;4.43;;;;;;;8.76;100.00;100487.47;5031142;28;20141;-74
2021/12/24 12:37:27;;;;;;;15.75;3.67;;;;;;;8.78;100.00;100498.81;5032007;28;20044;-73
2021/12/24 12:40:25;;;;;;;18.40;3.60;;;;;;;8.80;100.00;100489.91;5031702;28;20342;-70
2021/12/24 12:42:55;;;;;;;10.90;3.60;;;;;;;8.91;100.00;100483.31;5031362;28;20513;-72
2021/12/24 12:45:44;;;;;;;18.10;3.65;;;;;;;8.85;100.00;100489.72;5030754;28;20041;-74
2021/12/24 12:48:12;;;;;;;15.68;3.30;;;;;;;8.86;100.00;100483.50;5030550;28;20077;-74
2021/12/24 12:50:49;;;;;;;19.52;3.72;;;;;;;8.85;100.00;100484.44;5045581;28;20108;-73
2021/12/24 12:53:30;;;;;;;16.83;4.07;;;;;;;8.85;100.00;100484.44;5033638;28;20049;-73
2021/12/24 12:56:23;;;;;;;15.07;4.35;;;;;;;8.88;99.98;100468.47;5051715;28;20472;-71
2021/12/24 12:59:19;;;;;;;17.88;3.50;;;;;;;8.95;100.00;100476.97;5023683;28;20029;-74
2021/12/24 13:01:52;;;;;;;17.80;4.70;;;;;;;8.91;100.00;100457.75;5031305;28;20021;-74